sensor_id;sensor_type;location;lat;lon;timestamp;pressure;altitude;pressure_sealevel;temperature;humidity
68793;BME280;55778;54.346;10.210;2023-04-20T00:01:52;102134.78;;;7.36;71.44
68793;BME280;55778;54.346;10.210;2023-04-20T00:04:18;102133.44;;;7.29;71.23
68793;BME280;55778;54.346;10.210;2023-04-20T00:06:43;102125.56;;;7.24;71.66
68793;BME280;55778;54.346;10.210;2023-04-20T00:09:11;102126.66;;;7.36;71.45
68793;BME280;55778;54.346;10.210;2023-04-20T00:11:37;102121.81;;;7.27;71.62
68793;BME280;55778;54.346;10.210;2023-04-20T00:14:03;102121.41;;;7.19;71.99
68793;BME280;55778;54.346;10.210;2023-04-20T00:16:28;102116.75;;;7.21;71.95
68793;BME280;55778;54.346;10.210;2023-04-20T00:18:54;102115.88;;;7.20;71.84
68793;BME280;55778;54.346;10.210;2023-04-20T00:21:20;102108.34;;;7.25;71.64
68793;BME280;55778;54.346;10.210;2023-04-20T00:23:49;102111.63;;;7.16;72.14
68793;BME280;55778;54.346;10.210;2023-04-20T00:26:15;102114.53;;;7.27;71.40
68793;BME280;55778;54.346;10.210;2023-04-20T00:28:41;102102.47;;;7.33;71.19
68793;BME280;55778;54.346;10.210;2023-04-20T00:31:06;102100.72;;;7.32;70.80
68793;BME280;55778;54.346;10.210;2023-04-20T00:33:32;102092.53;;;7.47;68.74
68793;BME280;55778;54.346;10.210;2023-04-20T00:35:57;102090.94;;;7.43;69.29
68793;BME280;55778;54.346;10.210;2023-04-20T00:38:23;102096.00;;;7.49;67.49
68793;BME280;55778;54.346;10.210;2023-04-20T00:40:48;102079.06;;;7.60;65.24
68793;BME280;55778;54.346;10.210;2023-04-20T00:43:18;102086.81;;;7.66;63.49
68793;BME280;55778;54.346;10.210;2023-04-20T00:45:44;102076.66;;;7.69;63.11
68793;BME280;55778;54.346;10.210;2023-04-20T00:48:10;102072.41;;;7.65;62.64
68793;BME280;55778;54.346;10.210;2023-04-20T00:50:37;102059.78;;;7.64;62.34
68793;BME280;55778;54.346;10.210;2023-04-20T00:53:03;102058.75;;;7.67;61.34
68793;BME280;55778;54.346;10.210;2023-04-20T00:55:30;102062.31;;;7.67;61.19
68793;BME280;55778;54.346;10.210;2023-04-20T00:57:56;102059.03;;;7.62;60.14
68793;BME280;55778;54.346;10.210;2023-04-20T01:00:22;102046.50;;;7.60;60.25
68793;BME280;55778;54.346;10.210;2023-04-20T01:02:48;102052.34;;;7.68;59.86
68793;BME280;55778;54.346;10.210;2023-04-20T01:05:13;102041.28;;;7.57;59.37
68793;BME280;55778;54.346;10.210;2023-04-20T01:07:39;102037.53;;;7.59;59.93
68793;BME280;55778;54.346;10.210;2023-04-20T01:10:06;102033.63;;;7.49;60.56
68793;BME280;55778;54.346;10.210;2023-04-20T01:12:32;102032.53;;;7.38;61.33
68793;BME280;55778;54.346;10.210;2023-04-20T01:14:57;102024.22;;;7.41;61.49
68793;BME280;55778;54.346;10.210;2023-04-20T01:17:23;102029.47;;;7.44;61.73
68793;BME280;55778;54.346;10.210;2023-04-20T01:19:49;102020.44;;;7.43;62.35
68793;BME280;55778;54.346;10.210;2023-04-20T01:22:18;102029.75;;;7.39;62.38
68793;BME280;55778;54.346;10.210;2023-04-20T01:24:44;102011.84;;;7.37;61.87
68793;BME280;55778;54.346;10.210;2023-04-20T01:27:10;102021.13;;;7.33;62.02
68793;BME280;55778;54.346;10.210;2023-04-20T01:29:36;102014.22;;;7.27;61.98
68793;BME280;55778;54.346;10.210;2023-04-20T01:32:01;102021.00;;;7.20;62.13
68793;BME280;55778;54.346;10.210;2023-04-20T01:34:27;102019.72;;;7.12;62.47
68793;BME280;55778;54.346;10.210;2023-04-20T01:36:52;102018.75;;;7.13;62.75
68793;BME280;55778;54.346;10.210;2023-04-20T01:39:18;102018.59;;;7.00;63.09
68793;BME280;55778;54.346;10.210;2023-04-20T01:41:43;102016.41;;;7.07;62.95
68793;BME280;55778;54.346;10.210;2023-04-20T01:44:09;102011.47;;;6.99;62.74
68793;BME280;55778;54.346;10.210;2023-04-20T01:46:38;102006.69;;;6.89;63.17
68793;BME280;55778;54.346;10.210;2023-04-20T01:49:04;102012.00;;;6.90;63.23
68793;BME280;55778;54.346;10.210;2023-04-20T01:51:33;102006.59;;;6.90;63.52
68793;BME280;55778;54.346;10.210;2023-04-20T01:53:59;102000.50;;;6.87;63.92
68793;BME280;55778;54.346;10.210;2023-04-20T01:56:24;101996.13;;;6.84;63.97
68793;BME280;55778;54.346;10.210;2023-04-20T01:58:50;102001.06;;;6.78;63.79
68793;BME280;55778;54.346;10.210;2023-04-20T02:01:15;101990.03;;;6.81;63.08
68793;BME280;55778;54.346;10.210;2023-04-20T02:03:41;101995.44;;;6.81;62.96
68793;BME280;55778;54.346;10.210;2023-04-20T02:06:06;101996.31;;;6.81;63.64
68793;BME280;55778;54.346;10.210;2023-04-20T02:08:32;102004.97;;;6.72;63.88
68793;BME280;55778;54.346;10.210;2023-04-20T02:10:57;102001.13;;;6.76;63.96
68793;BME280;55778;54.346;10.210;2023-04-20T02:13:23;102004.22;;;6.70;64.45
68793;BME280;55778;54.346;10.210;2023-04-20T02:15:48;101997.03;;;6.69;65.02
68793;BME280;55778;54.346;10.210;2023-04-20T02:18:14;101987.44;;;6.64;65.19
68793;BME280;55778;54.346;10.210;2023-04-20T02:20:42;101983.09;;;6.61;64.57
68793;BME280;55778;54.346;10.210;2023-04-20T02:23:08;101988.59;;;6.60;64.38
68793;BME280;55778;54.346;10.210;2023-04-20T02:25:33;101984.59;;;6.51;64.08
68793;BME280;55778;54.346;10.210;2023-04-20T02:27:58;101971.56;;;6.58;64.31
68793;BME280;55778;54.346;10.210;2023-04-20T02:30:24;101969.47;;;6.47;64.76
68793;BME280;55778;54.346;10.210;2023-04-20T02:32:49;101969.22;;;6.52;64.84
68793;BME280;55778;54.346;10.210;2023-04-20T02:35:15;101966.88;;;6.46;65.45
68793;BME280;55778;54.346;10.210;2023-04-20T02:37:42;101971.59;;;6.42;65.76
68793;BME280;55778;54.346;10.210;2023-04-20T02:40:07;101975.34;;;6.40;66.11
68793;BME280;55778;54.346;10.210;2023-04-20T02:42:33;101971.00;;;6.37;66.34
68793;BME280;55778;54.346;10.210;2023-04-20T02:44:59;101966.38;;;6.39;66.89
68793;BME280;55778;54.346;10.210;2023-04-20T02:47:24;101962.44;;;6.29;67.38
68793;BME280;55778;54.346;10.210;2023-04-20T02:49:52;101969.00;;;6.25;68.19
68793;BME280;55778;54.346;10.210;2023-04-20T02:52:17;101964.88;;;6.34;67.87
68793;BME280;55778;54.346;10.210;2023-04-20T02:54:43;101963.41;;;6.28;67.99
68793;BME280;55778;54.346;10.210;2023-04-20T02:57:08;101967.00;;;6.29;68.20
68793;BME280;55778;54.346;10.210;2023-04-20T02:59:36;101969.78;;;6.27;68.28
68793;BME280;55778;54.346;10.210;2023-04-20T03:02:01;101956.53;;;6.23;68.72
68793;BME280;55778;54.346;10.210;2023-04-20T03:04:27;101970.81;;;6.25;68.88
68793;BME280;55778;54.346;10.210;2023-04-20T03:06:52;101960.78;;;6.27;68.71
68793;BME280;55778;54.346;10.210;2023-04-20T03:09:17;101958.53;;;6.19;69.44
68793;BME280;55778;54.346;10.210;2023-04-20T03:11:44;101956.69;;;6.20;69.64
68793;BME280;55778;54.346;10.210;2023-04-20T03:14:09;101955.72;;;6.21;69.76
68793;BME280;55778;54.346;10.210;2023-04-20T03:16:34;101952.53;;;6.14;70.66
68793;BME280;55778;54.346;10.210;2023-04-20T03:19:00;101952.53;;;6.14;70.87
68793;BME280;55778;54.346;10.210;2023-04-20T03:21:26;101952.97;;;6.06;71.35
68793;BME280;55778;54.346;10.210;2023-04-20T03:23:51;101955.22;;;6.14;71.31
68793;BME280;55778;54.346;10.210;2023-04-20T03:26:16;101956.53;;;6.07;72.06
68793;BME280;55778;54.346;10.210;2023-04-20T03:28:42;101950.84;;;6.11;71.83
68793;BME280;55778;54.346;10.210;2023-04-20T03:31:08;101965.69;;;6.20;71.70
68793;BME280;55778;54.346;10.210;2023-04-20T03:33:33;101953.03;;;6.21;71.87
68793;BME280;55778;54.346;10.210;2023-04-20T03:35:58;101952.25;;;6.19;72.07
68793;BME280;55778;54.346;10.210;2023-04-20T03:38:24;101949.56;;;6.19;72.30
68793;BME280;55778;54.346;10.210;2023-04-20T03:40:49;101946.94;;;6.17;72.16
68793;BME280;55778;54.346;10.210;2023-04-20T03:43:15;101936.19;;;6.16;72.46
68793;BME280;55778;54.346;10.210;2023-04-20T03:45:40;101938.78;;;6.33;71.98
68793;BME280;55778;54.346;10.210;2023-04-20T03:48:05;101943.56;;;6.28;72.14
68793;BME280;55778;54.346;10.210;2023-04-20T03:50:31;101936.69;;;6.22;72.78
68793;BME280;55778;54.346;10.210;2023-04-20T03:52:56;101924.53;;;6.29;72.33
68793;BME280;55778;54.346;10.210;2023-04-20T03:55:21;101941.31;;;6.36;72.65
68793;BME280;55778;54.346;10.210;2023-04-20T03:57:47;101945.75;;;6.37;72.44
68793;BME280;55778;54.346;10.210;2023-04-20T04:00:13;101942.28;;;6.35;72.51
68793;BME280;55778;54.346;10.210;2023-04-20T04:02:38;101942.75;;;6.41;71.96
68793;BME280;55778;54.346;10.210;2023-04-20T04:05:04;101945.03;;;6.49;72.33
68793;BME280;55778;54.346;10.210;2023-04-20T04:07:29;101944.63;;;6.41;72.36
68793;BME280;55778;54.346;10.210;2023-04-20T04:09:55;101944.00;;;6.51;72.34
68793;BME280;55778;54.346;10.210;2023-04-20T04:12:21;101935.06;;;6.49;72.33
68793;BME280;55778;54.346;10.210;2023-04-20T04:14:47;101944.16;;;6.48;72.35
68793;BME280;55778;54.346;10.210;2023-04-20T04:17:13;101947.38;;;6.55;72.42
68793;BME280;55778;54.346;10.210;2023-04-20T04:19:38;101939.25;;;6.55;71.56
68793;BME280;55778;54.346;10.210;2023-04-20T04:22:03;101943.72;;;6.56;71.76
68793;BME280;55778;54.346;10.210;2023-04-20T04:24:29;101943.53;;;6.59;71.36
68793;BME280;55778;54.346;10.210;2023-04-20T04:26:55;101940.81;;;6.59;70.89
68793;BME280;55778;54.346;10.210;2023-04-20T04:29:23;101948.56;;;6.65;70.40
68793;BME280;55778;54.346;10.210;2023-04-20T04:31:51;101945.09;;;6.63;70.69
68793;BME280;55778;54.346;10.210;2023-04-20T04:34:16;101944.81;;;6.67;71.00
68793;BME280;55778;54.346;10.210;2023-04-20T04:36:45;101939.94;;;6.58;70.72
68793;BME280;55778;54.346;10.210;2023-04-20T04:39:11;101949.16;;;6.70;70.81
68793;BME280;55778;54.346;10.210;2023-04-20T04:41:37;101941.03;;;6.70;71.13
68793;BME280;55778;54.346;10.210;2023-04-20T04:44:02;101950.91;;;6.71;71.19
68793;BME280;55778;54.346;10.210;2023-04-20T04:46:30;101939.56;;;6.64;71.16
68793;BME280;55778;54.346;10.210;2023-04-20T04:48:56;101944.00;;;6.65;71.50
68793;BME280;55778;54.346;10.210;2023-04-20T04:51:25;101940.94;;;6.71;71.59
68793;BME280;55778;54.346;10.210;2023-04-20T04:53:50;101933.78;;;6.70;71.65
68793;BME280;55778;54.346;10.210;2023-04-20T04:56:16;101932.13;;;6.68;71.33
68793;BME280;55778;54.346;10.210;2023-04-20T04:58:43;101925.75;;;6.69;71.68
68793;BME280;55778;54.346;10.210;2023-04-20T05:01:09;101936.59;;;6.69;72.17
68793;BME280;55778;54.346;10.210;2023-04-20T05:03:35;101932.22;;;6.66;72.07
68793;BME280;55778;54.346;10.210;2023-04-20T05:06:00;101933.38;;;6.62;72.69
68793;BME280;55778;54.346;10.210;2023-04-20T05:08:26;101937.88;;;6.77;71.84
68793;BME280;55778;54.346;10.210;2023-04-20T05:10:51;101935.06;;;6.79;72.22
68793;BME280;55778;54.346;10.210;2023-04-20T05:13:16;101940.47;;;6.79;72.34
68793;BME280;55778;54.346;10.210;2023-04-20T05:15:42;101942.91;;;6.83;72.81
68793;BME280;55778;54.346;10.210;2023-04-20T05:18:07;101953.75;;;6.97;72.41
68793;BME280;55778;54.346;10.210;2023-04-20T05:20:32;101947.59;;;6.95;73.04
68793;BME280;55778;54.346;10.210;2023-04-20T05:22:58;101951.28;;;6.94;73.54
68793;BME280;55778;54.346;10.210;2023-04-20T05:25:23;101951.81;;;6.85;74.21
68793;BME280;55778;54.346;10.210;2023-04-20T05:27:49;101947.69;;;6.94;74.17
68793;BME280;55778;54.346;10.210;2023-04-20T05:30:15;101951.94;;;6.98;75.29
68793;BME280;55778;54.346;10.210;2023-04-20T05:32:40;101957.53;;;6.95;76.30
68793;BME280;55778;54.346;10.210;2023-04-20T05:35:06;101961.59;;;7.02;77.09
68793;BME280;55778;54.346;10.210;2023-04-20T05:37:32;101972.44;;;7.02;77.94
68793;BME280;55778;54.346;10.210;2023-04-20T05:39:57;101967.22;;;6.99;77.61
68793;BME280;55778;54.346;10.210;2023-04-20T05:42:22;101976.03;;;7.02;78.00
68793;BME280;55778;54.346;10.210;2023-04-20T05:44:48;101971.88;;;6.97;77.93
68793;BME280;55778;54.346;10.210;2023-04-20T05:47:13;101970.63;;;7.02;77.96
68793;BME280;55778;54.346;10.210;2023-04-20T05:49:39;101968.31;;;7.10;78.11
68793;BME280;55778;54.346;10.210;2023-04-20T05:52:04;101969.66;;;7.03;78.54
68793;BME280;55778;54.346;10.210;2023-04-20T05:54:30;101969.38;;;7.08;78.42
68793;BME280;55778;54.346;10.210;2023-04-20T05:56:56;101981.88;;;7.10;78.41
68793;BME280;55778;54.346;10.210;2023-04-20T05:59:25;101972.41;;;7.17;77.09
68793;BME280;55778;54.346;10.210;2023-04-20T06:01:50;101972.41;;;7.17;77.06
68793;BME280;55778;54.346;10.210;2023-04-20T06:04:15;101976.88;;;7.32;76.72
68793;BME280;55778;54.346;10.210;2023-04-20T06:06:41;101968.94;;;7.29;76.19
68793;BME280;55778;54.346;10.210;2023-04-20T06:09:06;101972.09;;;7.36;76.36
68793;BME280;55778;54.346;10.210;2023-04-20T06:11:32;101981.72;;;7.41;76.42
68793;BME280;55778;54.346;10.210;2023-04-20T06:13:57;101964.56;;;7.41;75.60
68793;BME280;55778;54.346;10.210;2023-04-20T06:16:23;101968.44;;;7.51;75.23
68793;BME280;55778;54.346;10.210;2023-04-20T06:18:48;101963.59;;;7.56;74.79
68793;BME280;55778;54.346;10.210;2023-04-20T06:21:14;101961.09;;;7.53;74.31
68793;BME280;55778;54.346;10.210;2023-04-20T06:23:40;101959.53;;;7.49;74.57
68793;BME280;55778;54.346;10.210;2023-04-20T06:26:06;101961.66;;;7.58;74.86
68793;BME280;55778;54.346;10.210;2023-04-20T06:28:34;101956.31;;;7.70;74.91
68793;BME280;55778;54.346;10.210;2023-04-20T06:31:01;101964.56;;;7.69;74.79
68793;BME280;55778;54.346;10.210;2023-04-20T06:33:26;101956.03;;;7.75;74.78
68793;BME280;55778;54.346;10.210;2023-04-20T06:35:51;101963.38;;;7.73;75.22
68793;BME280;55778;54.346;10.210;2023-04-20T06:38:19;101972.97;;;7.64;75.79
68793;BME280;55778;54.346;10.210;2023-04-20T06:40:44;101968.16;;;7.69;76.48
68793;BME280;55778;54.346;10.210;2023-04-20T06:43:10;101973.88;;;7.65;76.87
68793;BME280;55778;54.346;10.210;2023-04-20T06:45:35;101966.09;;;7.73;76.31
68793;BME280;55778;54.346;10.210;2023-04-20T06:48:01;101973.56;;;7.69;76.50
68793;BME280;55778;54.346;10.210;2023-04-20T06:50:26;101969.22;;;7.67;76.08
68793;BME280;55778;54.346;10.210;2023-04-20T06:52:52;101974.47;;;7.70;76.76
68793;BME280;55778;54.346;10.210;2023-04-20T06:55:17;101969.03;;;7.70;76.93
68793;BME280;55778;54.346;10.210;2023-04-20T06:57:43;101976.09;;;7.72;76.47
68793;BME280;55778;54.346;10.210;2023-04-20T07:00:10;101982.00;;;7.65;76.71
68793;BME280;55778;54.346;10.210;2023-04-20T07:02:47;101978.31;;;7.66;77.27
68793;BME280;55778;54.346;10.210;2023-04-20T07:05:13;101975.13;;;7.73;77.74
68793;BME280;55778;54.346;10.210;2023-04-20T07:07:39;101978.31;;;7.80;77.40
68793;BME280;55778;54.346;10.210;2023-04-20T07:10:06;101975.31;;;7.84;77.35
68793;BME280;55778;54.346;10.210;2023-04-20T07:12:33;101990.91;;;7.95;77.35
68793;BME280;55778;54.346;10.210;2023-04-20T07:15:00;101978.56;;;8.03;77.81
68793;BME280;55778;54.346;10.210;2023-04-20T07:17:30;101984.44;;;8.10;77.60
68793;BME280;55778;54.346;10.210;2023-04-20T07:19:55;101988.63;;;8.01;78.25
68793;BME280;55778;54.346;10.210;2023-04-20T07:22:22;101978.66;;;8.02;78.55
68793;BME280;55778;54.346;10.210;2023-04-20T07:24:47;101987.59;;;8.04;79.41
68793;BME280;55778;54.346;10.210;2023-04-20T07:27:13;101984.09;;;8.02;79.20
68793;BME280;55778;54.346;10.210;2023-04-20T07:29:38;101985.28;;;7.98;79.26
68793;BME280;55778;54.346;10.210;2023-04-20T07:32:05;101984.59;;;7.94;79.75
68793;BME280;55778;54.346;10.210;2023-04-20T07:34:30;101989.03;;;7.95;80.27
68793;BME280;55778;54.346;10.210;2023-04-20T07:36:56;101993.41;;;7.98;80.68
68793;BME280;55778;54.346;10.210;2023-04-20T07:39:21;102000.09;;;7.92;80.66
68793;BME280;55778;54.346;10.210;2023-04-20T07:41:49;101993.53;;;7.82;81.38
68793;BME280;55778;54.346;10.210;2023-04-20T07:44:14;101977.03;;;7.71;82.48
68793;BME280;55778;54.346;10.210;2023-04-20T07:46:39;101967.75;;;7.61;83.19
68793;BME280;55778;54.346;10.210;2023-04-20T07:49:05;101976.56;;;7.51;84.09
68793;BME280;55778;54.346;10.210;2023-04-20T07:51:31;101975.63;;;7.52;85.22
68793;BME280;55778;54.346;10.210;2023-04-20T07:53:58;101984.25;;;7.44;86.43
68793;BME280;55778;54.346;10.210;2023-04-20T07:56:24;101979.47;;;7.48;86.54
68793;BME280;55778;54.346;10.210;2023-04-20T07:58:49;101978.03;;;7.42;87.35
68793;BME280;55778;54.346;10.210;2023-04-20T08:01:14;101972.78;;;7.39;87.50
68793;BME280;55778;54.346;10.210;2023-04-20T08:03:40;101966.59;;;7.37;88.23
68793;BME280;55778;54.346;10.210;2023-04-20T08:06:05;101972.97;;;7.36;88.68
68793;BME280;55778;54.346;10.210;2023-04-20T08:08:31;101985.56;;;7.23;88.63
68793;BME280;55778;54.346;10.210;2023-04-20T08:10:56;101991.88;;;7.24;89.46
68793;BME280;55778;54.346;10.210;2023-04-20T08:13:22;101989.25;;;7.22;89.64
68793;BME280;55778;54.346;10.210;2023-04-20T08:15:48;101991.88;;;7.24;89.62
68793;BME280;55778;54.346;10.210;2023-04-20T08:18:14;101992.94;;;7.35;89.33
68793;BME280;55778;54.346;10.210;2023-04-20T08:20:39;102001.94;;;7.36;89.25
68793;BME280;55778;54.346;10.210;2023-04-20T08:23:05;102003.09;;;7.32;89.01
68793;BME280;55778;54.346;10.210;2023-04-20T08:25:30;102003.69;;;7.37;89.29
68793;BME280;55778;54.346;10.210;2023-04-20T08:27:56;102003.41;;;7.41;89.56
68793;BME280;55778;54.346;10.210;2023-04-20T08:30:22;102007.66;;;7.45;89.33
68793;BME280;55778;54.346;10.210;2023-04-20T08:32:47;101998.19;;;7.38;89.68
68793;BME280;55778;54.346;10.210;2023-04-20T08:35:13;102006.31;;;7.38;90.73
68793;BME280;55778;54.346;10.210;2023-04-20T08:37:38;102014.81;;;7.32;91.08
68793;BME280;55778;54.346;10.210;2023-04-20T08:40:04;102019.28;;;7.33;92.38
68793;BME280;55778;54.346;10.210;2023-04-20T08:42:30;102023.72;;;7.34;92.09
68793;BME280;55778;54.346;10.210;2023-04-20T08:44:56;102025.84;;;7.29;91.67
68793;BME280;55778;54.346;10.210;2023-04-20T08:47:22;102022.97;;;7.32;92.39
68793;BME280;55778;54.346;10.210;2023-04-20T08:49:52;102013.78;;;7.49;91.79
68793;BME280;55778;54.346;10.210;2023-04-20T08:52:18;102014.44;;;7.52;91.24
68793;BME280;55778;54.346;10.210;2023-04-20T08:54:43;102004.97;;;7.59;90.58
68793;BME280;55778;54.346;10.210;2023-04-20T08:57:08;102018.53;;;7.59;90.06
68793;BME280;55778;54.346;10.210;2023-04-20T08:59:35;102003.97;;;7.46;90.56
68793;BME280;55778;54.346;10.210;2023-04-20T09:02:11;102006.50;;;7.49;90.47
68793;BME280;55778;54.346;10.210;2023-04-20T09:04:38;102018.41;;;7.47;91.00
68793;BME280;55778;54.346;10.210;2023-04-20T09:07:04;102023.84;;;7.47;91.74
68793;BME280;55778;54.346;10.210;2023-04-20T09:09:30;102017.72;;;7.43;91.65
68793;BME280;55778;54.346;10.210;2023-04-20T09:12:07;102035.84;;;7.43;91.72
68793;BME280;55778;54.346;10.210;2023-04-20T09:14:45;102035.38;;;7.50;92.09
68793;BME280;55778;54.346;10.210;2023-04-20T09:17:10;102050.06;;;7.46;93.24
68793;BME280;55778;54.346;10.210;2023-04-20T09:19:39;102045.34;;;7.50;93.39
68793;BME280;55778;54.346;10.210;2023-04-20T09:22:04;102056.41;;;7.61;93.39
68793;BME280;55778;54.346;10.210;2023-04-20T09:24:35;102049.63;;;7.68;91.80
68793;BME280;55778;54.346;10.210;2023-04-20T09:27:13;102043.81;;;7.88;90.53
68793;BME280;55778;54.346;10.210;2023-04-20T09:29:38;102043.63;;;8.05;90.38
68793;BME280;55778;54.346;10.210;2023-04-20T09:32:03;102043.41;;;8.36;89.44
68793;BME280;55778;54.346;10.210;2023-04-20T09:34:29;102051.16;;;8.69;87.30
68793;BME280;55778;54.346;10.210;2023-04-20T09:36:54;102042.16;;;9.07;85.72
68793;BME280;55778;54.346;10.210;2023-04-20T09:39:23;102041.75;;;9.26;84.22
68793;BME280;55778;54.346;10.210;2023-04-20T09:41:50;102040.31;;;9.20;84.78
68793;BME280;55778;54.346;10.210;2023-04-20T09:44:17;102047.91;;;9.03;84.10
68793;BME280;55778;54.346;10.210;2023-04-20T09:46:43;102049.75;;;9.02;84.38
68793;BME280;55778;54.346;10.210;2023-04-20T09:49:11;102043.91;;;8.82;85.52
68793;BME280;55778;54.346;10.210;2023-04-20T09:51:40;102048.22;;;8.98;85.34
68793;BME280;55778;54.346;10.210;2023-04-20T09:54:09;102048.38;;;9.09;85.09
68793;BME280;55778;54.346;10.210;2023-04-20T09:56:35;102040.53;;;9.17;84.38
68793;BME280;55778;54.346;10.210;2023-04-20T09:59:01;102028.69;;;9.31;83.92
68793;BME280;55778;54.346;10.210;2023-04-20T10:01:31;102025.34;;;9.40;83.92
68793;BME280;55778;54.346;10.210;2023-04-20T10:03:59;102028.28;;;9.62;83.26
68793;BME280;55778;54.346;10.210;2023-04-20T10:06:30;102028.09;;;9.77;82.31
68793;BME280;55778;54.346;10.210;2023-04-20T10:08:56;102027.50;;;9.97;80.41
68793;BME280;55778;54.346;10.210;2023-04-20T10:13:52;102022.13;;;10.34;79.86
68793;BME280;55778;54.346;10.210;2023-04-20T10:16:18;102018.97;;;10.63;78.03
68793;BME280;55778;54.346;10.210;2023-04-20T10:19:01;102020.75;;;11.10;76.14
68793;BME280;55778;54.346;10.210;2023-04-20T10:21:28;102022.00;;;11.51;75.02
68793;BME280;55778;54.346;10.210;2023-04-20T10:23:54;102016.63;;;11.84;72.19
68793;BME280;55778;54.346;10.210;2023-04-20T10:26:21;102028.53;;;11.38;72.18
68793;BME280;55778;54.346;10.210;2023-04-20T10:28:47;102025.47;;;11.53;73.04
68793;BME280;55778;54.346;10.210;2023-04-20T10:31:13;102018.84;;;11.90;72.75
68793;BME280;55778;54.346;10.210;2023-04-20T10:33:54;102023.72;;;12.09;71.18
68793;BME280;55778;54.346;10.210;2023-04-20T10:36:29;102029.50;;;11.82;70.81
68793;BME280;55778;54.346;10.210;2023-04-20T10:38:56;102017.13;;;12.12;70.09
68793;BME280;55778;54.346;10.210;2023-04-20T10:41:21;102025.19;;;11.91;71.05
68793;BME280;55778;54.346;10.210;2023-04-20T10:43:47;102029.28;;;12.30;70.92
68793;BME280;55778;54.346;10.210;2023-04-20T10:46:13;102023.19;;;12.37;68.90
68793;BME280;55778;54.346;10.210;2023-04-20T10:48:55;102024.56;;;12.21;69.68
68793;BME280;55778;54.346;10.210;2023-04-20T10:51:21;102021.69;;;12.11;69.86
68793;BME280;55778;54.346;10.210;2023-04-20T10:54:06;102028.66;;;12.37;70.27
68793;BME280;55778;54.346;10.210;2023-04-20T10:56:48;102018.69;;;12.90;68.21
68793;BME280;55778;54.346;10.210;2023-04-20T10:59:18;102014.41;;;13.08;67.72
68793;BME280;55778;54.346;10.210;2023-04-20T11:01:45;102024.28;;;12.88;66.88
68793;BME280;55778;54.346;10.210;2023-04-20T11:04:11;102018.75;;;12.57;68.26
68793;BME280;55778;54.346;10.210;2023-04-20T11:06:41;102025.00;;;12.48;68.34
68793;BME280;55778;54.346;10.210;2023-04-20T11:09:22;102023.56;;;12.33;68.75
68793;BME280;55778;54.346;10.210;2023-04-20T11:12:03;102010.63;;;12.46;69.49
68793;BME280;55778;54.346;10.210;2023-04-20T11:14:30;102016.22;;;12.33;69.59
68793;BME280;55778;54.346;10.210;2023-04-20T11:16:56;102023.56;;;11.99;70.12
68793;BME280;55778;54.346;10.210;2023-04-20T11:19:33;102016.38;;;12.21;71.01
68793;BME280;55778;54.346;10.210;2023-04-20T11:22:03;102012.47;;;12.45;69.64
68793;BME280;55778;54.346;10.210;2023-04-20T11:24:30;102007.72;;;12.90;68.92
68793;BME280;55778;54.346;10.210;2023-04-20T11:26:56;102009.16;;;13.16;67.24
68793;BME280;55778;54.346;10.210;2023-04-20T11:29:40;102015.81;;;12.91;66.90
68793;BME280;55778;54.346;10.210;2023-04-20T11:32:07;102019.44;;;12.81;67.86
68793;BME280;55778;54.346;10.210;2023-04-20T11:34:34;102017.72;;;12.80;68.27
68793;BME280;55778;54.346;10.210;2023-04-20T11:39:29;102014.31;;;12.56;69.84
68793;BME280;55778;54.346;10.210;2023-04-20T11:41:55;102015.78;;;12.60;69.21
68793;BME280;55778;54.346;10.210;2023-04-20T11:44:24;102005.91;;;12.79;68.75
68793;BME280;55778;54.346;10.210;2023-04-20T11:46:51;102009.16;;;13.16;67.95
68793;BME280;55778;54.346;10.210;2023-04-20T11:49:22;102009.94;;;13.07;67.86
68793;BME280;55778;54.346;10.210;2023-04-20T11:51:48;102002.78;;;12.84;68.36
68793;BME280;55778;54.346;10.210;2023-04-20T11:54:14;101996.63;;;12.60;69.47
68793;BME280;55778;54.346;10.210;2023-04-20T11:56:40;102000.53;;;12.89;68.23
68793;BME280;55778;54.346;10.210;2023-04-20T11:59:09;101995.59;;;13.35;66.10
68793;BME280;55778;54.346;10.210;2023-04-20T12:01:34;101993.09;;;13.73;64.73
68793;BME280;55778;54.346;10.210;2023-04-20T12:04:00;101993.38;;;14.40;64.29
68793;BME280;55778;54.346;10.210;2023-04-20T12:06:27;101993.66;;;14.27;62.28
68793;BME280;55778;54.346;10.210;2023-04-20T12:08:53;101995.16;;;14.20;62.26
68793;BME280;55778;54.346;10.210;2023-04-20T12:11:19;101990.53;;;14.60;62.00
68793;BME280;55778;54.346;10.210;2023-04-20T12:13:45;101978.41;;;14.53;62.75
68793;BME280;55778;54.346;10.210;2023-04-20T12:16:10;101991.84;;;14.17;61.99
68793;BME280;55778;54.346;10.210;2023-04-20T12:18:36;101994.81;;;14.34;61.25
68793;BME280;55778;54.346;10.210;2023-04-20T12:21:02;101986.19;;;13.78;62.89
68793;BME280;55778;54.346;10.210;2023-04-20T12:23:27;101989.16;;;13.66;62.92
68793;BME280;55778;54.346;10.210;2023-04-20T12:25:53;101987.94;;;13.79;63.55
68793;BME280;55778;54.346;10.210;2023-04-20T12:28:18;101982.28;;;14.11;61.54
68793;BME280;55778;54.346;10.210;2023-04-20T12:30:44;101985.44;;;13.97;61.60
68793;BME280;55778;54.346;10.210;2023-04-20T12:33:09;101989.25;;;13.55;64.05
68793;BME280;55778;54.346;10.210;2023-04-20T12:35:35;101980.19;;;13.54;63.65
68793;BME280;55778;54.346;10.210;2023-04-20T12:38:00;101987.56;;;13.22;64.28
68793;BME280;55778;54.346;10.210;2023-04-20T12:40:26;101986.28;;;13.67;63.61
68793;BME280;55778;54.346;10.210;2023-04-20T12:42:51;101985.03;;;14.11;61.82
68793;BME280;55778;54.346;10.210;2023-04-20T12:45:16;101989.81;;;14.19;60.29
68793;BME280;55778;54.346;10.210;2023-04-20T12:47:48;101989.91;;;13.98;60.52
68793;BME280;55778;54.346;10.210;2023-04-20T12:50:16;101954.88;;;14.11;60.40